Boynton, Oklahoma
Current Conditions -  °F | °C
As of 4:55 PM on Thursday 18 Dec 2014 (Local Time) from KOKM Reporting Station
Haze Haze  
Wind Chill: 36°   Ceiling: 600
Heat Index: 40°   Visibility: 5mi
Dew Point: 40°   Wind: 6mph
Humidity: 97%   Direction: 50°NE
Pressure: 30.17"   Gusts: NA
Location:  35.65°N, 95.66°W
Report Text: KOKM 182255Z AUTO 05005KT 5SM BR OVC006 05/04 A3017 RMK AO2 T00470043
Loading
Personal Weather Stations






























Interactive Weather Map New forecast layout! Learn more

10-Day Weather Forecast

Advertisements
Track Severe Weather on mobile